TimeEST,TemperatureF,Dew PointF,Humidity,Sea Level PressureIn,VisibilityMPH,Wind Direction,Wind SpeedMPH,Gust SpeedMPH,PrecipitationIn,Events,Conditions,WindDirDegrees,DateUTC
12:16 AM,19.4,19.4,100,30.28,1.0,Calm,Calm,-,0.00,Snow,Snow,0,2000-01-30 05:16:00
12:36 AM,19.4,19.4,100,30.28,1.2,Calm,Calm,-,0.00,Snow,Light Snow,0,2000-01-30 05:36:00
12:56 AM,19.4,19.4,100,30.27,2.5,Calm,Calm,-,0.00,Snow,Light Snow,0,2000-01-30 05:56:00
1:16 AM,19.4,19.4,100,30.27,2.5,Calm,Calm,-,0.01,Snow,Light Snow,0,2000-01-30 06:16:00
1:36 AM,19.4,19.4,100,30.26,5.0,Calm,Calm,-,0.01,,Overcast,0,2000-01-30 06:36:00
1:57 AM,19.4,19.4,100,30.25,4.0,SSE,3.5,-,N/A,,Overcast,160,2000-01-30 06:57:00
2:17 AM,19.4,19.4,100,30.23,3.0,Calm,Calm,-,0.01,,Overcast,0,2000-01-30 07:17:00
2:37 AM,19.4,19.4,100,30.23,2.0,Calm,Calm,-,0.02,,Overcast,0,2000-01-30 07:37:00
2:57 AM,19.4,19.4,100,30.23,3.0,Calm,Calm,-,N/A,,Overcast,0,2000-01-30 07:57:00
3:17 AM,19.4,19.4,100,30.23,2.0,Calm,Calm,-,0.01,,Overcast,0,2000-01-30 08:17:00
3:37 AM,19.4,19.4,100,30.21,1.8,Calm,Calm,-,0.02,,Overcast,0,2000-01-30 08:37:00
3:57 AM,19.4,19.4,100,30.20,0.8,Calm,Calm,-,N/A,,Overcast,0,2000-01-30 08:57:00
4:17 AM,19.4,19.4,100,30.20,0.8,Calm,Calm,-,0.01,,Overcast,0,2000-01-30 09:17:00
4:37 AM,19.4,19.4,100,30.20,1.0,Calm,Calm,-,0.02,,Overcast,0,2000-01-30 09:37:00
4:57 AM,19.4,19.4,100,30.18,0.8,Calm,Calm,-,N/A,,Overcast,0,2000-01-30 09:57:00
5:17 AM,19.4,19.4,100,30.18,1.0,Calm,Calm,-,0.01,,Overcast,0,2000-01-30 10:17:00
5:36 AM,21.2,19.4,93,30.17,1.0,Calm,Calm,-,0.01,,Overcast,0,2000-01-30 10:36:00
5:57 AM,21.2,19.4,93,30.16,1.0,Calm,Calm,-,N/A,,Overcast,0,2000-01-30 10:57:00
6:17 AM,21.2,21.2,100,30.16,0.8,Calm,Calm,-,0.01,,Overcast,0,2000-01-30 11:17:00
6:37 AM,21.2,21.2,100,30.16,0.5,Calm,Calm,-,0.01,Fog,Light Freezing Fog,0,2000-01-30 11:37:00
6:57 AM,21.2,21.2,100,30.15,0.5,Calm,Calm,-,0.00,,Overcast,0,2000-01-30 11:57:00
7:17 AM,21.2,21.2,100,30.15,0.5,Calm,Calm,-,0.01,,Overcast,0,2000-01-30 12:17:00
7:37 AM,23.0,23.0,100,30.15,0.2,Calm,Calm,-,0.04,,Overcast,0,2000-01-30 12:37:00
7:57 AM,23.0,23.0,100,30.14,0.5,Calm,Calm,-,0.00,,Overcast,0,2000-01-30 12:57:00
8:17 AM,23.0,23.0,100,30.13,1.0,Calm,Calm,-,0.01,,Overcast,0,2000-01-30 13:17:00
8:37 AM,24.8,24.8,100,30.13,0.5,Calm,Calm,-,0.02,,Overcast,0,2000-01-30 13:37:00
8:57 AM,26.6,26.6,100,30.11,0.5,ESE,3.5,-,0.00,,Overcast,120,2000-01-30 13:57:00
9:17 AM,26.6,26.6,100,30.11,1.5,SE,3.5,-,0.03,,Overcast,130,2000-01-30 14:17:00
9:36 AM,28.4,28.4,100,30.12,1.2,Calm,Calm,-,0.06,Snow,Light Snow,0,2000-01-30 14:36:00
9:56 AM,28.4,28.4,100,30.12,1.8,Calm,Calm,-,0.00,,Overcast,0,2000-01-30 14:56:00
10:16 AM,28.4,28.4,100,30.12,2.0,Calm,Calm,-,0.02,,Overcast,0,2000-01-30 15:16:00
10:36 AM,28.4,28.4,100,30.11,1.0,East,4.6,-,0.03,Snow,Light Snow,100,2000-01-30 15:36:00
10:56 AM,28.4,28.4,100,30.10,1.2,ESE,3.5,-,0.00,Snow,Light Snow,110,2000-01-30 15:56:00
11:16 AM,28.4,28.4,100,30.09,2.0,Calm,Calm,-,0.01,Snow,Light Snow,0,2000-01-30 16:16:00
11:36 AM,28.4,28.4,100,30.09,1.8,Calm,Calm,-,0.01,Snow,Light Snow,0,2000-01-30 16:36:00
11:56 AM,28.4,28.4,100,30.07,1.8,Calm,Calm,-,0.00,Snow,Light Snow,0,2000-01-30 16:56:00
12:16 PM,28.4,28.4,100,30.05,1.5,Calm,Calm,-,0.01,Snow,Light Snow,0,2000-01-30 17:16:00
12:36 PM,28.4,28.4,100,30.04,1.5,Calm,Calm,-,0.02,Snow,Light Snow,0,2000-01-30 17:36:00
12:56 PM,28.4,28.4,100,30.02,2.5,Calm,Calm,-,0.00,Snow,Light Snow,0,2000-01-30 17:56:00
1:16 PM,28.4,28.4,100,30.01,4.0,NW,3.5,-,0.01,,Overcast,320,2000-01-30 18:16:00
1:36 PM,28.4,28.4,100,30.00,5.0,NNW,3.5,-,0.03,,Overcast,330,2000-01-30 18:36:00
1:56 PM,28.4,28.4,100,29.99,10.0,Calm,Calm,-,N/A,,Overcast,0,2000-01-30 18:56:00
2:16 PM,30.2,30.2,100,29.98,7.0,Calm,Calm,-,0.02,,Overcast,0,2000-01-30 19:16:00
2:36 PM,30.2,30.2,100,29.97,7.0,Calm,Calm,-,0.03,,Overcast,0,2000-01-30 19:36:00
2:56 PM,32.0,32.0,100,29.97,3.0,West,3.5,-,0.00,Snow,Light Snow,270,2000-01-30 19:56:00
3:16 PM,32.0,32.0,100,29.97,2.0,West,6.9,-,0.01,Snow,Light Snow,280,2000-01-30 20:16:00
3:36 PM,32.0,32.0,100,29.96,5.0,WSW,5.8,-,0.01,,Overcast,250,2000-01-30 20:36:00
3:56 PM,32.0,32.0,100,29.96,10.0,West,10.4,-,N/A,,Mostly Cloudy,260,2000-01-30 20:56:00
4:16 PM,32.0,32.0,100,29.94,10.0,West,12.7,17.3,N/A,,Mostly Cloudy,260,2000-01-30 21:16:00
4:36 PM,32.0,30.2,93,29.95,10.0,WSW,15.0,25.3,N/A,,Mostly Cloudy,250,2000-01-30 21:36:00
4:57 PM,32.0,30.2,93,29.95,10.0,WSW,9.2,20.7,N/A,,Overcast,240,2000-01-30 21:57:00
5:17 PM,32.0,28.4,87,29.94,10.0,West,8.1,16.1,N/A,,Overcast,270,2000-01-30 22:17:00
5:37 PM,32.0,28.4,87,29.95,10.0,West,4.6,-,N/A,,Overcast,260,2000-01-30 22:37:00
5:57 PM,32.0,26.6,80,29.95,10.0,West,9.2,28.8,N/A,,Overcast,270,2000-01-30 22:57:00
6:17 PM,30.2,26.6,86,29.95,10.0,WSW,12.7,18.4,N/A,,Overcast,250,2000-01-30 23:17:00
6:37 PM,30.2,26.6,86,29.95,10.0,West,16.1,28.8,N/A,,Overcast,260,2000-01-30 23:37:00
6:57 PM,30.2,26.6,86,29.95,10.0,WSW,9.2,24.2,N/A,,Overcast,240,2000-01-30 23:57:00
7:17 PM,28.4,26.6,93,29.95,10.0,WSW,11.5,20.7,N/A,,Overcast,250,2000-01-31 00:17:00
7:37 PM,28.4,26.6,93,29.95,10.0,West,11.5,19.6,N/A,,Overcast,270,2000-01-31 00:37:00
7:57 PM,28.4,23.0,80,29.94,10.0,West,10.4,24.2,N/A,,Mostly Cloudy,260,2000-01-31 00:57:00
8:17 PM,28.4,23.0,80,29.94,10.0,West,15.0,26.5,N/A,,Scattered Clouds,260,2000-01-31 01:17:00
8:37 PM,28.4,24.8,86,29.93,10.0,WSW,10.4,25.3,N/A,,Mostly Cloudy,250,2000-01-31 01:37:00
8:57 PM,28.4,26.6,93,29.92,10.0,WSW,16.1,25.3,N/A,,Overcast,240,2000-01-31 01:57:00
9:17 PM,28.4,24.8,86,29.93,10.0,WSW,15.0,33.4,N/A,,Overcast,250,2000-01-31 02:17:00
9:37 PM,28.4,24.8,86,29.92,10.0,West,15.0,32.2,N/A,,Overcast,260,2000-01-31 02:37:00
9:56 PM,28.4,26.6,93,29.93,10.0,WSW,16.1,24.2,N/A,,Overcast,250,2000-01-31 02:56:00
10:17 PM,28.4,24.8,86,29.93,7.0,West,16.1,40.3,N/A,,Overcast,260,2000-01-31 03:17:00
10:37 PM,28.4,24.8,86,29.92,10.0,West,17.3,31.1,N/A,,Overcast,270,2000-01-31 03:37:00
10:57 PM,28.4,24.8,86,29.92,10.0,WSW,16.1,19.6,N/A,,Overcast,250,2000-01-31 03:57:00
11:17 PM,28.4,26.6,93,29.92,10.0,WSW,16.1,26.5,N/A,,Overcast,250,2000-01-31 04:17:00
11:37 PM,28.4,24.8,86,29.92,10.0,West,15.0,29.9,N/A,,Overcast,260,2000-01-31 04:37:00
11:57 PM,26.6,23.0,86,29.92,10.0,West,12.7,28.8,N/A,,Overcast,260,2000-01-31 04:57:00